sensor_id;sensor_type;location;lat;lon;timestamp;temperature;humidity
20057;DHT22;10189;49.546;7.906;2022-09-09T00:01:28;13.70;88.20
20057;DHT22;10189;49.546;7.906;2022-09-09T00:06:52;13.70;88.50
20057;DHT22;10189;49.546;7.906;2022-09-09T00:09:28;13.70;88.60
20057;DHT22;10189;49.546;7.906;2022-09-09T00:15:11;13.80;89.80
20057;DHT22;10189;49.546;7.906;2022-09-09T00:21:08;13.90;88.80
20057;DHT22;10189;49.546;7.906;2022-09-09T00:23:40;14.00;88.60
20057;DHT22;10189;49.546;7.906;2022-09-09T00:26:32;14.00;88.50
20057;DHT22;10189;49.546;7.906;2022-09-09T00:31:41;14.00;88.50
20057;DHT22;10189;49.546;7.906;2022-09-09T00:34:18;14.00;88.40
20057;DHT22;10189;49.546;7.906;2022-09-09T00:36:50;14.00;88.50
20057;DHT22;10189;49.546;7.906;2022-09-09T00:39:26;14.00;88.50
20057;DHT22;10189;49.546;7.906;2022-09-09T00:44:39;14.10;87.80
20057;DHT22;10189;49.546;7.906;2022-09-09T00:50:12;14.10;87.80
20057;DHT22;10189;49.546;7.906;2022-09-09T00:53:09;14.10;87.90
20057;DHT22;10189;49.546;7.906;2022-09-09T01:01:48;14.10;87.40
20057;DHT22;10189;49.546;7.906;2022-09-09T01:04:25;14.10;87.30
20057;DHT22;10189;49.546;7.906;2022-09-09T01:07:12;14.10;87.70
20057;DHT22;10189;49.546;7.906;2022-09-09T01:09:59;14.10;87.40
20057;DHT22;10189;49.546;7.906;2022-09-09T01:12:38;14.10;87.20
20057;DHT22;10189;49.546;7.906;2022-09-09T01:15:29;14.10;86.90
20057;DHT22;10189;49.546;7.906;2022-09-09T01:18:07;14.10;87.10
20057;DHT22;10189;49.546;7.906;2022-09-09T01:21:00;14.20;86.70
20057;DHT22;10189;49.546;7.906;2022-09-09T01:23:51;14.20;86.60
20057;DHT22;10189;49.546;7.906;2022-09-09T01:27:00;14.30;86.50
20057;DHT22;10189;49.546;7.906;2022-09-09T01:29:29;14.30;86.30
20057;DHT22;10189;49.546;7.906;2022-09-09T01:32:03;14.30;86.20
20057;DHT22;10189;49.546;7.906;2022-09-09T01:35:03;14.30;86.10
20057;DHT22;10189;49.546;7.906;2022-09-09T01:37:30;14.30;86.10
20057;DHT22;10189;49.546;7.906;2022-09-09T01:39:56;14.40;85.70
20057;DHT22;10189;49.546;7.906;2022-09-09T01:42:22;14.40;85.40
20057;DHT22;10189;49.546;7.906;2022-09-09T01:44:48;14.40;85.40
20057;DHT22;10189;49.546;7.906;2022-09-09T01:47:15;14.30;85.50
20057;DHT22;10189;49.546;7.906;2022-09-09T01:50:12;14.30;85.70
20057;DHT22;10189;49.546;7.906;2022-09-09T01:52:41;14.20;85.90
20057;DHT22;10189;49.546;7.906;2022-09-09T01:55:11;14.10;86.30
20057;DHT22;10189;49.546;7.906;2022-09-09T02:00:19;14.10;86.60
20057;DHT22;10189;49.546;7.906;2022-09-09T02:03:08;13.90;87.20
20057;DHT22;10189;49.546;7.906;2022-09-09T02:06:34;13.90;87.50
20057;DHT22;10189;49.546;7.906;2022-09-09T02:09:24;14.00;87.60
20057;DHT22;10189;49.546;7.906;2022-09-09T02:12:02;14.00;87.40
20057;DHT22;10189;49.546;7.906;2022-09-09T02:14:45;14.00;87.10
20057;DHT22;10189;49.546;7.906;2022-09-09T02:17:19;14.10;86.80
20057;DHT22;10189;49.546;7.906;2022-09-09T02:20:08;14.10;86.60
20057;DHT22;10189;49.546;7.906;2022-09-09T02:22:53;14.10;86.50
20057;DHT22;10189;49.546;7.906;2022-09-09T02:25:24;14.10;86.40
20057;DHT22;10189;49.546;7.906;2022-09-09T02:27:57;14.10;86.80
20057;DHT22;10189;49.546;7.906;2022-09-09T02:30:25;14.00;86.90
20057;DHT22;10189;49.546;7.906;2022-09-09T02:32:58;14.10;87.10
20057;DHT22;10189;49.546;7.906;2022-09-09T02:35:47;14.10;86.60
20057;DHT22;10189;49.546;7.906;2022-09-09T02:38:19;14.20;86.20
20057;DHT22;10189;49.546;7.906;2022-09-09T02:40:57;14.20;86.40
20057;DHT22;10189;49.546;7.906;2022-09-09T02:43:24;14.20;86.20
20057;DHT22;10189;49.546;7.906;2022-09-09T02:46:22;14.20;86.10
20057;DHT22;10189;49.546;7.906;2022-09-09T02:49:09;14.20;86.10
20057;DHT22;10189;49.546;7.906;2022-09-09T02:51:49;14.10;86.30
20057;DHT22;10189;49.546;7.906;2022-09-09T02:54:35;14.10;86.80
20057;DHT22;10189;49.546;7.906;2022-09-09T02:57:24;14.00;87.10
20057;DHT22;10189;49.546;7.906;2022-09-09T02:59:57;14.00;87.20
20057;DHT22;10189;49.546;7.906;2022-09-09T03:02:24;14.00;86.90
20057;DHT22;10189;49.546;7.906;2022-09-09T03:04:55;14.00;87.30
20057;DHT22;10189;49.546;7.906;2022-09-09T03:07:21;14.00;87.10
20057;DHT22;10189;49.546;7.906;2022-09-09T03:09:49;14.00;87.10
20057;DHT22;10189;49.546;7.906;2022-09-09T03:12:16;14.10;86.90
20057;DHT22;10189;49.546;7.906;2022-09-09T03:14:42;14.10;86.70
20057;DHT22;10189;49.546;7.906;2022-09-09T03:17:11;14.20;86.50
20057;DHT22;10189;49.546;7.906;2022-09-09T03:19:44;14.20;86.30
20057;DHT22;10189;49.546;7.906;2022-09-09T03:22:12;14.20;86.40
20057;DHT22;10189;49.546;7.906;2022-09-09T03:24:41;14.20;86.00
20057;DHT22;10189;49.546;7.906;2022-09-09T03:27:07;14.20;85.90
20057;DHT22;10189;49.546;7.906;2022-09-09T03:29:35;14.10;86.20
20057;DHT22;10189;49.546;7.906;2022-09-09T03:32:03;14.00;86.30
20057;DHT22;10189;49.546;7.906;2022-09-09T03:34:29;14.00;86.60
20057;DHT22;10189;49.546;7.906;2022-09-09T03:36:57;13.90;86.80
20057;DHT22;10189;49.546;7.906;2022-09-09T03:39:24;13.90;87.00
20057;DHT22;10189;49.546;7.906;2022-09-09T03:41:50;13.90;87.00
20057;DHT22;10189;49.546;7.906;2022-09-09T03:44:17;13.80;87.10
20057;DHT22;10189;49.546;7.906;2022-09-09T03:46:43;13.80;87.50
20057;DHT22;10189;49.546;7.906;2022-09-09T03:49:09;13.80;87.40
20057;DHT22;10189;49.546;7.906;2022-09-09T03:51:35;13.70;87.90
20057;DHT22;10189;49.546;7.906;2022-09-09T03:54:02;13.70;88.20
20057;DHT22;10189;49.546;7.906;2022-09-09T03:56:31;13.70;87.90
20057;DHT22;10189;49.546;7.906;2022-09-09T03:58:58;13.60;88.00
20057;DHT22;10189;49.546;7.906;2022-09-09T04:01:24;13.60;88.10
20057;DHT22;10189;49.546;7.906;2022-09-09T04:03:50;13.60;88.30
20057;DHT22;10189;49.546;7.906;2022-09-09T04:06:17;13.60;88.30
20057;DHT22;10189;49.546;7.906;2022-09-09T04:08:45;13.50;88.50
20057;DHT22;10189;49.546;7.906;2022-09-09T04:11:14;13.40;89.10
20057;DHT22;10189;49.546;7.906;2022-09-09T04:13:42;13.40;89.50
20057;DHT22;10189;49.546;7.906;2022-09-09T04:16:12;13.30;89.80
20057;DHT22;10189;49.546;7.906;2022-09-09T04:18:43;13.30;90.20
20057;DHT22;10189;49.546;7.906;2022-09-09T04:21:10;13.30;90.40
20057;DHT22;10189;49.546;7.906;2022-09-09T04:23:38;13.40;90.50
20057;DHT22;10189;49.546;7.906;2022-09-09T04:26:05;13.40;90.10
20057;DHT22;10189;49.546;7.906;2022-09-09T04:28:34;13.50;89.70
20057;DHT22;10189;49.546;7.906;2022-09-09T04:31:10;13.50;90.10
20057;DHT22;10189;49.546;7.906;2022-09-09T04:33:41;13.60;89.50
20057;DHT22;10189;49.546;7.906;2022-09-09T04:36:09;13.70;89.20
20057;DHT22;10189;49.546;7.906;2022-09-09T04:38:35;13.70;89.30
20057;DHT22;10189;49.546;7.906;2022-09-09T04:41:03;13.80;88.90
20057;DHT22;10189;49.546;7.906;2022-09-09T04:43:30;13.90;88.30
20057;DHT22;10189;49.546;7.906;2022-09-09T04:45:56;14.00;87.80
20057;DHT22;10189;49.546;7.906;2022-09-09T04:48:24;14.10;87.40
20057;DHT22;10189;49.546;7.906;2022-09-09T04:50:55;14.00;87.50
20057;DHT22;10189;49.546;7.906;2022-09-09T04:53:31;14.00;88.30
20057;DHT22;10189;49.546;7.906;2022-09-09T04:56:13;14.10;88.00
20057;DHT22;10189;49.546;7.906;2022-09-09T04:58:46;14.20;88.10
20057;DHT22;10189;49.546;7.906;2022-09-09T05:01:20;14.20;87.10
20057;DHT22;10189;49.546;7.906;2022-09-09T05:03:49;14.30;87.40
20057;DHT22;10189;49.546;7.906;2022-09-09T05:06:20;14.30;86.80
20057;DHT22;10189;49.546;7.906;2022-09-09T05:08:49;14.40;86.60
20057;DHT22;10189;49.546;7.906;2022-09-09T05:11:24;14.40;86.70
20057;DHT22;10189;49.546;7.906;2022-09-09T05:13:56;14.40;86.70
20057;DHT22;10189;49.546;7.906;2022-09-09T05:16:22;14.50;86.60
20057;DHT22;10189;49.546;7.906;2022-09-09T05:18:49;14.50;86.50
20057;DHT22;10189;49.546;7.906;2022-09-09T05:21:21;14.50;86.60
20057;DHT22;10189;49.546;7.906;2022-09-09T05:23:48;14.50;86.70
20057;DHT22;10189;49.546;7.906;2022-09-09T05:26:19;14.60;86.30
20057;DHT22;10189;49.546;7.906;2022-09-09T05:28:48;14.60;86.40
20057;DHT22;10189;49.546;7.906;2022-09-09T05:31:16;14.60;86.10
20057;DHT22;10189;49.546;7.906;2022-09-09T05:33:46;14.50;86.40
20057;DHT22;10189;49.546;7.906;2022-09-09T05:36:16;14.60;86.40
20057;DHT22;10189;49.546;7.906;2022-09-09T05:38:45;14.50;86.80
20057;DHT22;10189;49.546;7.906;2022-09-09T05:41:13;14.60;86.30
20057;DHT22;10189;49.546;7.906;2022-09-09T05:43:44;14.70;85.90
20057;DHT22;10189;49.546;7.906;2022-09-09T05:46:17;14.60;86.00
20057;DHT22;10189;49.546;7.906;2022-09-09T05:48:47;14.80;86.60
20057;DHT22;10189;49.546;7.906;2022-09-09T05:51:25;15.00;85.80
20057;DHT22;10189;49.546;7.906;2022-09-09T05:53:56;15.10;84.40
20057;DHT22;10189;49.546;7.906;2022-09-09T05:56:29;15.10;84.20
20057;DHT22;10189;49.546;7.906;2022-09-09T05:58:57;15.10;84.60
20057;DHT22;10189;49.546;7.906;2022-09-09T06:01:25;15.10;84.30
20057;DHT22;10189;49.546;7.906;2022-09-09T06:03:53;15.00;84.70
20057;DHT22;10189;49.546;7.906;2022-09-09T06:06:25;15.10;84.50
20057;DHT22;10189;49.546;7.906;2022-09-09T06:08:57;15.20;84.60
20057;DHT22;10189;49.546;7.906;2022-09-09T06:11:29;15.30;83.60
20057;DHT22;10189;49.546;7.906;2022-09-09T06:14:03;15.40;83.30
20057;DHT22;10189;49.546;7.906;2022-09-09T06:16:31;15.50;83.90
20057;DHT22;10189;49.546;7.906;2022-09-09T06:18:58;15.50;83.90
20057;DHT22;10189;49.546;7.906;2022-09-09T06:21:29;15.40;84.70
20057;DHT22;10189;49.546;7.906;2022-09-09T06:23:59;15.40;84.40
20057;DHT22;10189;49.546;7.906;2022-09-09T06:26:37;15.40;85.20
20057;DHT22;10189;49.546;7.906;2022-09-09T06:29:09;15.40;86.00
20057;DHT22;10189;49.546;7.906;2022-09-09T06:31:36;15.40;85.40
20057;DHT22;10189;49.546;7.906;2022-09-09T06:34:08;15.40;84.80
20057;DHT22;10189;49.546;7.906;2022-09-09T06:36:39;15.50;85.50
20057;DHT22;10189;49.546;7.906;2022-09-09T06:39:06;15.40;85.60
20057;DHT22;10189;49.546;7.906;2022-09-09T06:41:34;15.30;85.80
20057;DHT22;10189;49.546;7.906;2022-09-09T06:44:02;15.20;86.10
20057;DHT22;10189;49.546;7.906;2022-09-09T06:46:40;15.20;86.60
20057;DHT22;10189;49.546;7.906;2022-09-09T06:49:08;15.20;86.90
20057;DHT22;10189;49.546;7.906;2022-09-09T06:51:36;15.30;87.10
20057;DHT22;10189;49.546;7.906;2022-09-09T06:54:09;15.40;86.90
20057;DHT22;10189;49.546;7.906;2022-09-09T06:56:39;15.50;87.10
20057;DHT22;10189;49.546;7.906;2022-09-09T06:59:12;15.70;86.10
20057;DHT22;10189;49.546;7.906;2022-09-09T07:01:40;15.70;85.70
20057;DHT22;10189;49.546;7.906;2022-09-09T07:04:11;15.70;85.50
20057;DHT22;10189;49.546;7.906;2022-09-09T07:06:42;15.70;85.30
20057;DHT22;10189;49.546;7.906;2022-09-09T07:09:14;15.70;85.30
20057;DHT22;10189;49.546;7.906;2022-09-09T07:11:49;15.90;87.00
20057;DHT22;10189;49.546;7.906;2022-09-09T07:14:19;16.20;85.10
20057;DHT22;10189;49.546;7.906;2022-09-09T07:16:50;16.40;84.20
20057;DHT22;10189;49.546;7.906;2022-09-09T07:19:17;16.50;82.70
20057;DHT22;10189;49.546;7.906;2022-09-09T07:21:45;16.80;82.40
20057;DHT22;10189;49.546;7.906;2022-09-09T07:24:13;17.00;83.20
20057;DHT22;10189;49.546;7.906;2022-09-09T07:26:41;17.40;83.00
20057;DHT22;10189;49.546;7.906;2022-09-09T07:29:08;17.60;79.80
20057;DHT22;10189;49.546;7.906;2022-09-09T07:31:37;17.60;79.30
20057;DHT22;10189;49.546;7.906;2022-09-09T07:34:09;17.30;79.30
20057;DHT22;10189;49.546;7.906;2022-09-09T07:36:37;17.30;78.60
20057;DHT22;10189;49.546;7.906;2022-09-09T07:39:08;17.20;79.20
20057;DHT22;10189;49.546;7.906;2022-09-09T07:41:47;17.20;79.50
20057;DHT22;10189;49.546;7.906;2022-09-09T07:44:19;17.20;79.60
20057;DHT22;10189;49.546;7.906;2022-09-09T07:46:50;17.40;80.00
20057;DHT22;10189;49.546;7.906;2022-09-09T07:49:21;17.50;78.60
20057;DHT22;10189;49.546;7.906;2022-09-09T07:51:48;17.70;78.70
20057;DHT22;10189;49.546;7.906;2022-09-09T07:54:17;17.90;76.40
20057;DHT22;10189;49.546;7.906;2022-09-09T07:56:48;18.00;75.50
20057;DHT22;10189;49.546;7.906;2022-09-09T07:59:16;17.80;75.30
20057;DHT22;10189;49.546;7.906;2022-09-09T08:01:49;17.80;75.40
20057;DHT22;10189;49.546;7.906;2022-09-09T08:04:21;17.80;76.50
20057;DHT22;10189;49.546;7.906;2022-09-09T08:06:58;17.80;76.00
20057;DHT22;10189;49.546;7.906;2022-09-09T08:09:27;17.70;76.10
20057;DHT22;10189;49.546;7.906;2022-09-09T08:11:59;17.50;75.70
20057;DHT22;10189;49.546;7.906;2022-09-09T08:14:28;17.40;75.70
20057;DHT22;10189;49.546;7.906;2022-09-09T08:16:55;17.60;76.00
20057;DHT22;10189;49.546;7.906;2022-09-09T08:19:25;17.80;75.50
20057;DHT22;10189;49.546;7.906;2022-09-09T08:21:52;18.00;75.20
20057;DHT22;10189;49.546;7.906;2022-09-09T08:24:18;18.10;72.60
20057;DHT22;10189;49.546;7.906;2022-09-09T08:26:48;18.10;73.00
20057;DHT22;10189;49.546;7.906;2022-09-09T08:29:17;18.00;74.00
20057;DHT22;10189;49.546;7.906;2022-09-09T08:31:47;18.20;74.70
20057;DHT22;10189;49.546;7.906;2022-09-09T08:34:15;18.30;72.60
20057;DHT22;10189;49.546;7.906;2022-09-09T08:36:44;18.10;73.50
20057;DHT22;10189;49.546;7.906;2022-09-09T08:39:14;18.10;74.10
20057;DHT22;10189;49.546;7.906;2022-09-09T08:50:35;17.30;74.00
20057;DHT22;10189;49.546;7.906;2022-09-09T08:53:26;17.20;76.00
20057;DHT22;10189;49.546;7.906;2022-09-09T08:56:03;17.40;74.50
20057;DHT22;10189;49.546;7.906;2022-09-09T08:58:48;17.70;74.60
20057;DHT22;10189;49.546;7.906;2022-09-09T09:01:38;17.80;73.70
20057;DHT22;10189;49.546;7.906;2022-09-09T09:04:54;17.70;70.10
20057;DHT22;10189;49.546;7.906;2022-09-09T09:07:48;17.90;72.50
20057;DHT22;10189;49.546;7.906;2022-09-09T09:10:46;18.20;70.40
20057;DHT22;10189;49.546;7.906;2022-09-09T09:13:45;18.60;70.20
20057;DHT22;10189;49.546;7.906;2022-09-09T09:16:51;18.70;67.90
20057;DHT22;10189;49.546;7.906;2022-09-09T09:19:33;18.30;69.50
20057;DHT22;10189;49.546;7.906;2022-09-09T09:22:06;18.00;70.40
20057;DHT22;10189;49.546;7.906;2022-09-09T09:24:55;17.60;70.60
20057;DHT22;10189;49.546;7.906;2022-09-09T09:27:40;17.20;72.80
20057;DHT22;10189;49.546;7.906;2022-09-09T09:30:21;17.10;73.90
20057;DHT22;10189;49.546;7.906;2022-09-09T09:35:58;17.70;74.70
20057;DHT22;10189;49.546;7.906;2022-09-09T09:38:27;17.80;74.10
20057;DHT22;10189;49.546;7.906;2022-09-09T09:40:58;17.80;72.80
20057;DHT22;10189;49.546;7.906;2022-09-09T09:43:35;17.90;74.10
20057;DHT22;10189;49.546;7.906;2022-09-09T09:46:19;18.00;73.60
20057;DHT22;10189;49.546;7.906;2022-09-09T09:49:01;18.30;73.90
20057;DHT22;10189;49.546;7.906;2022-09-09T09:51:31;18.80;71.10
20057;DHT22;10189;49.546;7.906;2022-09-09T09:56:33;19.00;68.50
20057;DHT22;10189;49.546;7.906;2022-09-09T09:59:01;19.00;67.40
20057;DHT22;10189;49.546;7.906;2022-09-09T10:01:34;19.10;67.90
20057;DHT22;10189;49.546;7.906;2022-09-09T10:04:14;19.20;67.90
20057;DHT22;10189;49.546;7.906;2022-09-09T10:07:15;19.40;66.90
20057;DHT22;10189;49.546;7.906;2022-09-09T10:09:50;19.20;64.30
20057;DHT22;10189;49.546;7.906;2022-09-09T10:15:36;18.80;65.00
20057;DHT22;10189;49.546;7.906;2022-09-09T10:34:39;18.80;65.20
20057;DHT22;10189;49.546;7.906;2022-09-09T10:40:39;19.40;64.50
20057;DHT22;10189;49.546;7.906;2022-09-09T10:43:17;19.80;64.00
20057;DHT22;10189;49.546;7.906;2022-09-09T10:46:18;19.90;60.80
20057;DHT22;10189;49.546;7.906;2022-09-09T10:55:13;19.50;60.10
20057;DHT22;10189;49.546;7.906;2022-09-09T10:57:46;19.30;61.60
20057;DHT22;10189;49.546;7.906;2022-09-09T11:00:21;19.50;61.80
20057;DHT22;10189;49.546;7.906;2022-09-09T11:02:56;19.60;62.10
20057;DHT22;10189;49.546;7.906;2022-09-09T11:05:30;19.50;59.80
20057;DHT22;10189;49.546;7.906;2022-09-09T11:08:10;19.70;61.00
20057;DHT22;10189;49.546;7.906;2022-09-09T11:11:02;19.70;61.20
20057;DHT22;10189;49.546;7.906;2022-09-09T11:14:11;19.70;60.30
20057;DHT22;10189;49.546;7.906;2022-09-09T11:16:52;19.70;59.70
20057;DHT22;10189;49.546;7.906;2022-09-09T11:19:41;19.90;60.60
20057;DHT22;10189;49.546;7.906;2022-09-09T11:22:37;20.30;60.70
20057;DHT22;10189;49.546;7.906;2022-09-09T11:27:57;20.80;59.90
20057;DHT22;10189;49.546;7.906;2022-09-09T11:42:19;21.50;55.40
20057;DHT22;10189;49.546;7.906;2022-09-09T11:44:47;21.50;57.60
20057;DHT22;10189;49.546;7.906;2022-09-09T11:47:30;21.70;56.20
20057;DHT22;10189;49.546;7.906;2022-09-09T11:50:31;21.60;54.90
20057;DHT22;10189;49.546;7.906;2022-09-09T11:53:18;21.30;54.50
20057;DHT22;10189;49.546;7.906;2022-09-09T11:56:06;20.70;56.60
20057;DHT22;10189;49.546;7.906;2022-09-09T11:58:40;20.10;59.10
20057;DHT22;10189;49.546;7.906;2022-09-09T12:01:42;19.50;59.10
20057;DHT22;10189;49.546;7.906;2022-09-09T12:06:54;18.00;62.10
20057;DHT22;10189;49.546;7.906;2022-09-09T12:09:47;16.50;69.90
20057;DHT22;10189;49.546;7.906;2022-09-09T12:12:31;15.60;74.90
20057;DHT22;10189;49.546;7.906;2022-09-09T12:17:47;14.70;82.10
20057;DHT22;10189;49.546;7.906;2022-09-09T12:34:14;14.40;90.20
20057;DHT22;10189;49.546;7.906;2022-09-09T12:37:05;14.40;89.00
20057;DHT22;10189;49.546;7.906;2022-09-09T12:39:49;14.40;90.00
20057;DHT22;10189;49.546;7.906;2022-09-09T12:42:21;14.60;90.40
20057;DHT22;10189;49.546;7.906;2022-09-09T12:44:53;15.00;89.10
20057;DHT22;10189;49.546;7.906;2022-09-09T12:47:29;15.30;87.70
20057;DHT22;10189;49.546;7.906;2022-09-09T12:49:57;15.70;86.90
20057;DHT22;10189;49.546;7.906;2022-09-09T12:52:31;16.10;84.50
20057;DHT22;10189;49.546;7.906;2022-09-09T12:55:02;16.50;83.80
20057;DHT22;10189;49.546;7.906;2022-09-09T12:57:36;16.70;84.90
20057;DHT22;10189;49.546;7.906;2022-09-09T13:00:07;16.70;80.80
20057;DHT22;10189;49.546;7.906;2022-09-09T13:05:34;16.70;79.90
20057;DHT22;10189;49.546;7.906;2022-09-09T13:08:06;16.70;80.90
20057;DHT22;10189;49.546;7.906;2022-09-09T13:13:35;16.70;79.60
20057;DHT22;10189;49.546;7.906;2022-09-09T13:16:06;16.80;79.30
20057;DHT22;10189;49.546;7.906;2022-09-09T13:18:43;16.80;79.60
20057;DHT22;10189;49.546;7.906;2022-09-09T13:21:09;16.80;80.20
20057;DHT22;10189;49.546;7.906;2022-09-09T13:23:37;16.80;81.20
20057;DHT22;10189;49.546;7.906;2022-09-09T13:26:21;16.80;78.00
20057;DHT22;10189;49.546;7.906;2022-09-09T13:28:50;16.80;79.70
20057;DHT22;10189;49.546;7.906;2022-09-09T13:31:27;16.90;80.70
20057;DHT22;10189;49.546;7.906;2022-09-09T13:33:57;17.00;80.20
20057;DHT22;10189;49.546;7.906;2022-09-09T13:36:34;17.20;80.00
20057;DHT22;10189;49.546;7.906;2022-09-09T13:39:02;17.40;80.00
20057;DHT22;10189;49.546;7.906;2022-09-09T13:41:32;17.80;81.60
20057;DHT22;10189;49.546;7.906;2022-09-09T13:44:03;18.20;78.90
20057;DHT22;10189;49.546;7.906;2022-09-09T13:46:39;18.40;76.10
20057;DHT22;10189;49.546;7.906;2022-09-09T13:51:43;18.60;75.20
20057;DHT22;10189;49.546;7.906;2022-09-09T13:54:15;18.60;74.50
20057;DHT22;10189;49.546;7.906;2022-09-09T13:56:44;18.60;73.50
20057;DHT22;10189;49.546;7.906;2022-09-09T13:59:15;18.50;75.40
20057;DHT22;10189;49.546;7.906;2022-09-09T14:01:45;18.40;75.70
20057;DHT22;10189;49.546;7.906;2022-09-09T14:04:11;18.40;76.60
20057;DHT22;10189;49.546;7.906;2022-09-09T14:06:38;18.30;75.70
20057;DHT22;10189;49.546;7.906;2022-09-09T14:09:06;18.30;76.60
20057;DHT22;10189;49.546;7.906;2022-09-09T14:11:33;18.20;77.20
20057;DHT22;10189;49.546;7.906;2022-09-09T14:13:59;18.20;77.20
20057;DHT22;10189;49.546;7.906;2022-09-09T14:16:26;18.00;78.40
20057;DHT22;10189;49.546;7.906;2022-09-09T14:18:53;17.70;79.00
20057;DHT22;10189;49.546;7.906;2022-09-09T14:21:21;17.30;79.30
20057;DHT22;10189;49.546;7.906;2022-09-09T14:23:47;17.10;79.40
20057;DHT22;10189;49.546;7.906;2022-09-09T14:26:14;17.00;80.90
20057;DHT22;10189;49.546;7.906;2022-09-09T14:28:40;16.80;80.40
20057;DHT22;10189;49.546;7.906;2022-09-09T14:31:06;16.70;81.60
20057;DHT22;10189;49.546;7.906;2022-09-09T14:33:32;16.50;82.10
20057;DHT22;10189;49.546;7.906;2022-09-09T14:36:00;16.40;82.60
20057;DHT22;10189;49.546;7.906;2022-09-09T14:38:33;16.30;83.30
20057;DHT22;10189;49.546;7.906;2022-09-09T14:41:04;16.30;83.30
20057;DHT22;10189;49.546;7.906;2022-09-09T14:43:31;16.30;83.80
20057;DHT22;10189;49.546;7.906;2022-09-09T14:46:07;16.40;84.10
20057;DHT22;10189;49.546;7.906;2022-09-09T14:48:35;16.50;83.30
20057;DHT22;10189;49.546;7.906;2022-09-09T14:51:06;16.70;83.20
20057;DHT22;10189;49.546;7.906;2022-09-09T14:53:36;17.00;82.70
20057;DHT22;10189;49.546;7.906;2022-09-09T14:56:10;17.30;82.20
20057;DHT22;10189;49.546;7.906;2022-09-09T14:58:42;17.70;80.70
20057;DHT22;10189;49.546;7.906;2022-09-09T15:01:14;18.10;78.20
20057;DHT22;10189;49.546;7.906;2022-09-09T15:03:43;18.30;77.70
20057;DHT22;10189;49.546;7.906;2022-09-09T15:06:14;18.50;76.00
20057;DHT22;10189;49.546;7.906;2022-09-09T15:08:43;18.50;76.10
20057;DHT22;10189;49.546;7.906;2022-09-09T15:11:11;18.60;76.10
20057;DHT22;10189;49.546;7.906;2022-09-09T15:13:39;18.70;76.50
20057;DHT22;10189;49.546;7.906;2022-09-09T15:16:16;18.50;72.80
20057;DHT22;10189;49.546;7.906;2022-09-09T15:18:44;18.20;72.90
20057;DHT22;10189;49.546;7.906;2022-09-09T15:21:19;18.00;71.80
20057;DHT22;10189;49.546;7.906;2022-09-09T15:23:47;17.90;72.00
20057;DHT22;10189;49.546;7.906;2022-09-09T15:26:15;17.70;72.30
20057;DHT22;10189;49.546;7.906;2022-09-09T15:28:43;17.70;74.10
20057;DHT22;10189;49.546;7.906;2022-09-09T15:31:13;17.70;74.70
20057;DHT22;10189;49.546;7.906;2022-09-09T15:33:50;17.80;72.90
20057;DHT22;10189;49.546;7.906;2022-09-09T15:36:24;17.80;73.00
20057;DHT22;10189;49.546;7.906;2022-09-09T15:38:51;17.70;72.00
20057;DHT22;10189;49.546;7.906;2022-09-09T15:41:19;17.50;72.70
20057;DHT22;10189;49.546;7.906;2022-09-09T15:43:52;17.40;73.00
20057;DHT22;10189;49.546;7.906;2022-09-09T15:46:33;17.20;73.50
20057;DHT22;10189;49.546;7.906;2022-09-09T15:49:15;17.10;72.80
20057;DHT22;10189;49.546;7.906;2022-09-09T15:51:46;17.00;73.20
20057;DHT22;10189;49.546;7.906;2022-09-09T15:54:17;16.90;73.70
20057;DHT22;10189;49.546;7.906;2022-09-09T15:56:47;16.80;74.70
20057;DHT22;10189;49.546;7.906;2022-09-09T15:59:17;16.80;75.40
20057;DHT22;10189;49.546;7.906;2022-09-09T16:01:44;16.80;75.20
20057;DHT22;10189;49.546;7.906;2022-09-09T16:04:10;16.80;75.30
20057;DHT22;10189;49.546;7.906;2022-09-09T16:06:36;16.80;75.20
20057;DHT22;10189;49.546;7.906;2022-09-09T16:09:04;16.80;75.60
20057;DHT22;10189;49.546;7.906;2022-09-09T16:11:34;16.80;77.00
20057;DHT22;10189;49.546;7.906;2022-09-09T16:14:01;16.70;76.90
20057;DHT22;10189;49.546;7.906;2022-09-09T16:16:29;16.60;76.20
20057;DHT22;10189;49.546;7.906;2022-09-09T16:18:57;16.60;77.20
20057;DHT22;10189;49.546;7.906;2022-09-09T16:21:35;16.60;76.00
20057;DHT22;10189;49.546;7.906;2022-09-09T16:24:04;16.50;77.10
20057;DHT22;10189;49.546;7.906;2022-09-09T16:26:33;16.50;77.40
20057;DHT22;10189;49.546;7.906;2022-09-09T16:29:00;16.50;76.60
20057;DHT22;10189;49.546;7.906;2022-09-09T16:31:28;16.40;76.50
20057;DHT22;10189;49.546;7.906;2022-09-09T16:33:57;16.40;77.60
20057;DHT22;10189;49.546;7.906;2022-09-09T16:36:28;16.40;77.20
20057;DHT22;10189;49.546;7.906;2022-09-09T16:38:58;16.30;76.20
20057;DHT22;10189;49.546;7.906;2022-09-09T16:41:27;16.30;76.20
20057;DHT22;10189;49.546;7.906;2022-09-09T16:43:58;16.20;76.70
20057;DHT22;10189;49.546;7.906;2022-09-09T16:46:30;16.10;76.50
20057;DHT22;10189;49.546;7.906;2022-09-09T16:49:00;16.00;78.30
20057;DHT22;10189;49.546;7.906;2022-09-09T16:51:29;16.00;79.40
20057;DHT22;10189;49.546;7.906;2022-09-09T16:53:58;15.90;80.80
20057;DHT22;10189;49.546;7.906;2022-09-09T16:56:30;15.60;80.20
20057;DHT22;10189;49.546;7.906;2022-09-09T16:59:04;15.40;81.30
20057;DHT22;10189;49.546;7.906;2022-09-09T17:01:34;15.30;82.60
20057;DHT22;10189;49.546;7.906;2022-09-09T17:04:05;15.00;83.00
20057;DHT22;10189;49.546;7.906;2022-09-09T17:06:33;14.80;84.30
20057;DHT22;10189;49.546;7.906;2022-09-09T17:09:02;14.70;83.10
20057;DHT22;10189;49.546;7.906;2022-09-09T17:11:31;14.60;83.90
20057;DHT22;10189;49.546;7.906;2022-09-09T17:13:58;14.50;85.70
20057;DHT22;10189;49.546;7.906;2022-09-09T17:16:27;14.40;86.90
20057;DHT22;10189;49.546;7.906;2022-09-09T17:18:55;14.30;87.60
20057;DHT22;10189;49.546;7.906;2022-09-09T17:21:25;14.10;88.80
20057;DHT22;10189;49.546;7.906;2022-09-09T17:23:52;14.10;89.00
20057;DHT22;10189;49.546;7.906;2022-09-09T17:26:21;14.10;88.70
20057;DHT22;10189;49.546;7.906;2022-09-09T17:28:48;14.00;88.80
20057;DHT22;10189;49.546;7.906;2022-09-09T17:31:16;13.90;89.00
20057;DHT22;10189;49.546;7.906;2022-09-09T17:33:49;13.70;89.30
20057;DHT22;10189;49.546;7.906;2022-09-09T17:36:25;13.70;90.20
20057;DHT22;10189;49.546;7.906;2022-09-09T17:38:56;13.70;90.00
20057;DHT22;10189;49.546;7.906;2022-09-09T17:41:25;13.70;90.20
20057;DHT22;10189;49.546;7.906;2022-09-09T17:43:53;13.50;90.50
20057;DHT22;10189;49.546;7.906;2022-09-09T17:46:25;13.50;90.80
20057;DHT22;10189;49.546;7.906;2022-09-09T17:48:58;13.50;90.40
20057;DHT22;10189;49.546;7.906;2022-09-09T17:51:28;13.40;90.80
20057;DHT22;10189;49.546;7.906;2022-09-09T17:54:01;13.30;90.60
20057;DHT22;10189;49.546;7.906;2022-09-09T17:56:30;13.20;92.00
20057;DHT22;10189;49.546;7.906;2022-09-09T17:58:58;13.20;92.50
20057;DHT22;10189;49.546;7.906;2022-09-09T18:01:30;13.20;93.30